GHOUG EGGP-EGNX
Flight info
| Callsign | GHOUG |
|---|---|
| Flight time | 0h 27m |
| Altitude | 5000 |
| Route | WHI TNT EMW |
| Aircraft | BE36/L-SG/L |
Departure
| Time | 2026-04-29 04:43 |
|---|---|
| Airport | Liverpool John Lennon Airport (EGGP) |
Arrival
| Time | 2026-04-29 05:10 |
|---|---|
| Airport | East Midlands Airport (EGNX) |
| Time | Latitude | Longitude | Altitude | Speed | Heading |
|---|---|---|---|---|---|
| 2026-04-29 04:35 | 53.33735 | -2.83721 | 80 ft | 0 kts | 86° |
| 2026-04-29 04:35 | 53.33735 | -2.83705 | 81 ft | 5 kts | 115° |
| 2026-04-29 04:35 | 53.33706 | -2.83742 | 80 ft | 7 kts | 218° |
| 2026-04-29 04:36 | 53.33652 | -2.83791 | 82 ft | 9 kts | 197° |
| 2026-04-29 04:36 | 53.33625 | -2.83797 | 80 ft | 0 kts | 178° |
| 2026-04-29 04:40 | 53.33594 | -2.83783 | 79 ft | 9 kts | 135° |
| 2026-04-29 04:40 | 53.33581 | -2.83661 | 81 ft | 12 kts | 125° |
| 2026-04-29 04:40 | 53.33525 | -2.83631 | 79 ft | 5 kts | 175° |
| 2026-04-29 04:41 | 53.33521 | -2.83631 | 79 ft | 0 kts | 176° |
| 2026-04-29 04:41 | 53.33510 | -2.83628 | 82 ft | 6 kts | 164° |
| 2026-04-29 04:42 | 53.33445 | -2.83622 | 79 ft | 12 kts | 200° |
| 2026-04-29 04:42 | 53.33413 | -2.83844 | 81 ft | 47 kts | 265° |
| 2026-04-29 04:42 | 53.33375 | -2.84663 | 101 ft | 100 kts | 264° |
| 2026-04-29 04:42 | 53.33296 | -2.85840 | 323 ft | 110 kts | 262° |
| 2026-04-29 04:43 | 53.33192 | -2.87104 | 739 ft | 107 kts | 256° |
| 2026-04-29 04:43 | 53.32851 | -2.88154 | 1141 ft | 105 kts | 217° |
| 2026-04-29 04:43 | 53.32232 | -2.88552 | 1413 ft | 113 kts | 184° |
| 2026-04-29 04:43 | 53.31489 | -2.88241 | 1610 ft | 126 kts | 148° |
| 2026-04-29 04:44 | 53.30872 | -2.87135 | 1845 ft | 133 kts | 118° |
| 2026-04-29 04:44 | 53.30559 | -2.85730 | 2019 ft | 133 kts | 105° |
| 2026-04-29 04:44 | 53.30434 | -2.84220 | 2201 ft | 133 kts | 92° |
| 2026-04-29 04:44 | 53.30402 | -2.82737 | 2367 ft | 134 kts | 96° |
| 2026-04-29 04:45 | 53.30182 | -2.81248 | 2533 ft | 134 kts | 112° |
| 2026-04-29 04:45 | 53.29739 | -2.79881 | 2716 ft | 134 kts | 124° |
| 2026-04-29 04:45 | 53.29186 | -2.78691 | 2875 ft | 133 kts | 131° |
| 2026-04-29 04:45 | 53.28553 | -2.77561 | 3048 ft | 133 kts | 135° |
| 2026-04-29 04:46 | 53.27910 | -2.76514 | 3217 ft | 132 kts | 136° |
| 2026-04-29 04:46 | 53.27249 | -2.75479 | 3389 ft | 132 kts | 137° |
| 2026-04-29 04:46 | 53.26633 | -2.74534 | 3549 ft | 131 kts | 138° |
| 2026-04-29 04:46 | 53.25995 | -2.73560 | 3715 ft | 131 kts | 137° |
| 2026-04-29 04:47 | 53.25350 | -2.72572 | 3882 ft | 133 kts | 138° |
| 2026-04-29 04:47 | 53.24693 | -2.71573 | 4051 ft | 134 kts | 137° |
| 2026-04-29 04:47 | 53.24004 | -2.70524 | 4226 ft | 136 kts | 138° |
| 2026-04-29 04:47 | 53.23330 | -2.69499 | 4395 ft | 138 kts | 138° |
| 2026-04-29 04:48 | 53.22643 | -2.68453 | 4564 ft | 139 kts | 138° |
| 2026-04-29 04:48 | 53.21943 | -2.67382 | 4733 ft | 139 kts | 137° |
| 2026-04-29 04:48 | 53.21222 | -2.66291 | 4913 ft | 140 kts | 138° |
| 2026-04-29 04:48 | 53.20488 | -2.65174 | 4976 ft | 148 kts | 138° |
| 2026-04-29 04:49 | 53.19718 | -2.64004 | 4992 ft | 155 kts | 137° |
| 2026-04-29 04:49 | 53.18914 | -2.62755 | 5001 ft | 160 kts | 133° |
| 2026-04-29 04:49 | 53.18367 | -2.61127 | 5006 ft | 164 kts | 107° |
| 2026-04-29 04:49 | 53.18096 | -2.59265 | 5004 ft | 167 kts | 101° |
| 2026-04-29 04:50 | 53.17868 | -2.57355 | 5001 ft | 168 kts | 101° |
| 2026-04-29 04:50 | 53.17655 | -2.55587 | 5000 ft | 169 kts | 101° |
| 2026-04-29 04:50 | 53.17419 | -2.53693 | 4999 ft | 170 kts | 102° |
| 2026-04-29 04:50 | 53.17173 | -2.51795 | 4998 ft | 170 kts | 102° |
| 2026-04-29 04:51 | 53.16929 | -2.49947 | 4998 ft | 170 kts | 102° |
| 2026-04-29 04:51 | 53.16682 | -2.48091 | 4997 ft | 169 kts | 102° |
| 2026-04-29 04:51 | 53.16426 | -2.46177 | 4997 ft | 169 kts | 102° |
| 2026-04-29 04:51 | 53.16198 | -2.44483 | 4996 ft | 168 kts | 103° |
| 2026-04-29 04:52 | 53.15942 | -2.42597 | 4995 ft | 164 kts | 103° |
| 2026-04-29 04:52 | 53.15696 | -2.40799 | 4995 ft | 163 kts | 102° |
| 2026-04-29 04:52 | 53.15459 | -2.39031 | 4996 ft | 164 kts | 102° |
| 2026-04-29 04:52 | 53.15200 | -2.37234 | 4998 ft | 165 kts | 105° |
| 2026-04-29 04:53 | 53.14921 | -2.35495 | 5000 ft | 166 kts | 105° |
| 2026-04-29 04:53 | 53.14662 | -2.33776 | 5001 ft | 166 kts | 104° |
| 2026-04-29 04:53 | 53.14413 | -2.32014 | 5001 ft | 166 kts | 104° |
| 2026-04-29 04:53 | 53.14155 | -2.30118 | 5001 ft | 167 kts | 103° |
| 2026-04-29 04:54 | 53.13917 | -2.28354 | 5001 ft | 167 kts | 103° |
| 2026-04-29 04:54 | 53.13682 | -2.26612 | 5000 ft | 167 kts | 103° |
| 2026-04-29 04:54 | 53.13425 | -2.24723 | 5001 ft | 167 kts | 103° |
| 2026-04-29 04:54 | 53.13179 | -2.22909 | 5000 ft | 167 kts | 103° |
| 2026-04-29 04:55 | 53.12925 | -2.21046 | 5000 ft | 167 kts | 103° |
| 2026-04-29 04:55 | 53.12689 | -2.19324 | 5000 ft | 167 kts | 103° |
| 2026-04-29 04:55 | 53.12431 | -2.17440 | 5001 ft | 167 kts | 103° |
| 2026-04-29 04:55 | 53.12181 | -2.15621 | 5001 ft | 167 kts | 103° |
| 2026-04-29 04:56 | 53.11921 | -2.13723 | 5001 ft | 167 kts | 104° |
| 2026-04-29 04:56 | 53.11672 | -2.11914 | 5000 ft | 167 kts | 104° |
| 2026-04-29 04:56 | 53.11417 | -2.10064 | 5001 ft | 167 kts | 104° |
| 2026-04-29 04:56 | 53.11165 | -2.08237 | 5000 ft | 167 kts | 103° |
| 2026-04-29 04:57 | 53.10909 | -2.06369 | 5000 ft | 168 kts | 103° |
| 2026-04-29 04:57 | 53.10648 | -2.04468 | 5000 ft | 169 kts | 104° |
| 2026-04-29 04:57 | 53.10390 | -2.02614 | 5000 ft | 169 kts | 104° |
| 2026-04-29 04:57 | 53.10129 | -2.00731 | 5000 ft | 170 kts | 104° |
| 2026-04-29 04:58 | 53.09871 | -1.98873 | 5000 ft | 170 kts | 104° |
| 2026-04-29 04:58 | 53.09633 | -1.97160 | 5001 ft | 171 kts | 104° |
| 2026-04-29 04:58 | 53.09372 | -1.95283 | 5002 ft | 171 kts | 104° |
| 2026-04-29 04:58 | 53.09106 | -1.93380 | 5001 ft | 171 kts | 104° |
| 2026-04-29 04:59 | 53.08858 | -1.91597 | 5000 ft | 172 kts | 104° |
| 2026-04-29 04:59 | 53.08598 | -1.89736 | 5002 ft | 172 kts | 104° |
| 2026-04-29 04:59 | 53.08327 | -1.87797 | 5001 ft | 172 kts | 104° |
| 2026-04-29 04:59 | 53.08056 | -1.85862 | 5000 ft | 172 kts | 104° |
| 2026-04-29 05:00 | 53.07789 | -1.83954 | 5001 ft | 172 kts | 104° |
| 2026-04-29 05:00 | 53.07518 | -1.82018 | 5002 ft | 172 kts | 104° |
| 2026-04-29 05:00 | 53.07245 | -1.80081 | 5001 ft | 172 kts | 104° |
| 2026-04-29 05:00 | 53.06974 | -1.78144 | 4999 ft | 172 kts | 104° |
| 2026-04-29 05:01 | 53.06705 | -1.76236 | 4999 ft | 172 kts | 104° |
| 2026-04-29 05:01 | 53.06432 | -1.74302 | 5001 ft | 172 kts | 104° |
| 2026-04-29 05:01 | 53.06159 | -1.72367 | 4999 ft | 172 kts | 104° |
| 2026-04-29 05:01 | 53.05886 | -1.70433 | 5000 ft | 172 kts | 104° |
| 2026-04-29 05:02 | 53.05623 | -1.68495 | 4999 ft | 172 kts | 104° |
| 2026-04-29 05:02 | 53.05159 | -1.66690 | 4998 ft | 170 kts | 128° |
| 2026-04-29 05:02 | 53.04266 | -1.65422 | 4999 ft | 170 kts | 143° |
| 2026-04-29 05:02 | 53.03414 | -1.64107 | 4999 ft | 170 kts | 135° |
| 2026-04-29 05:03 | 53.02559 | -1.62694 | 4861 ft | 177 kts | 137° |
| 2026-04-29 05:03 | 53.01947 | -1.61717 | 4762 ft | 180 kts | 137° |
| 2026-04-29 05:03 | 53.00998 | -1.60225 | 4608 ft | 183 kts | 137° |
| 2026-04-29 05:03 | 53.00062 | -1.58769 | 4457 ft | 185 kts | 137° |
| 2026-04-29 05:04 | 52.99119 | -1.57308 | 4307 ft | 186 kts | 138° |
| 2026-04-29 05:04 | 52.98171 | -1.55843 | 4156 ft | 186 kts | 138° |
| 2026-04-29 05:04 | 52.97222 | -1.54381 | 4000 ft | 187 kts | 138° |
| 2026-04-29 05:04 | 52.96269 | -1.52915 | 3852 ft | 187 kts | 138° |
| 2026-04-29 05:05 | 52.95316 | -1.51449 | 3700 ft | 186 kts | 138° |
| 2026-04-29 05:05 | 52.94363 | -1.49987 | 3548 ft | 187 kts | 138° |
| 2026-04-29 05:05 | 52.93406 | -1.48518 | 3397 ft | 188 kts | 138° |
| 2026-04-29 05:05 | 52.92451 | -1.47051 | 3170 ft | 190 kts | 138° |
| 2026-04-29 05:06 | 52.91483 | -1.45571 | 2917 ft | 189 kts | 138° |
| 2026-04-29 05:06 | 52.90562 | -1.44161 | 2676 ft | 188 kts | 138° |
| 2026-04-29 05:06 | 52.89598 | -1.42684 | 2424 ft | 188 kts | 138° |
| 2026-04-29 05:06 | 52.88633 | -1.41205 | 2168 ft | 187 kts | 138° |
| 2026-04-29 05:07 | 52.87687 | -1.39768 | 1944 ft | 186 kts | 139° |
| 2026-04-29 05:07 | 52.86700 | -1.38406 | 1755 ft | 184 kts | 137° |
| 2026-04-29 05:07 | 52.86000 | -1.36875 | 1738 ft | 176 kts | 112° |
| 2026-04-29 05:07 | 52.85849 | -1.34930 | 1735 ft | 167 kts | 84° |
| 2026-04-29 05:08 | 52.86021 | -1.33053 | 1575 ft | 164 kts | 80° |
| 2026-04-29 05:08 | 52.86109 | -1.31295 | 1520 ft | 147 kts | 90° |
| 2026-04-29 05:08 | 52.86006 | -1.29628 | 1300 ft | 145 kts | 107° |
| 2026-04-29 05:08 | 52.85430 | -1.28487 | 1296 ft | 122 kts | 151° |
| 2026-04-29 05:09 | 52.84586 | -1.28179 | 903 ft | 119 kts | 179° |
| 2026-04-29 05:09 | 52.83828 | -1.28332 | 626 ft | 98 kts | 196° |
| 2026-04-29 05:09 | 52.83369 | -1.29043 | 494 ft | 91 kts | 243° |
| 2026-04-29 05:09 | 52.83170 | -1.29990 | 427 ft | 87 kts | 257° |
| 2026-04-29 05:10 | 52.83133 | -1.30981 | 356 ft | 85 kts | 265° |
| 2026-04-29 05:10 | 52.83115 | -1.31890 | 309 ft | 73 kts | 266° |
| 2026-04-29 05:10 | 52.83103 | -1.32615 | 295 ft | 50 kts | 269° |
| 2026-04-29 05:10 | 52.83095 | -1.33087 | 300 ft | 33 kts | 268° |
| 2026-04-29 05:11 | 52.83087 | -1.33408 | 301 ft | 24 kts | 268° |
| 2026-04-29 05:11 | 52.83082 | -1.33641 | 303 ft | 17 kts | 261° |
| 2026-04-29 05:11 | 52.83022 | -1.33731 | 300 ft | 10 kts | 174° |
| 2026-04-29 05:11 | 52.82968 | -1.33727 | 300 ft | 5 kts | 178° |
| 2026-04-29 05:12 | 52.82967 | -1.33727 | 300 ft | 0 kts | 178° |
| 2026-04-29 05:12 | 52.82961 | -1.33726 | 300 ft | 4 kts | 175° |
| 2026-04-29 05:12 | 52.82899 | -1.33721 | 297 ft | 14 kts | 178° |
| 2026-04-29 05:13 | 52.82826 | -1.33714 | 295 ft | 13 kts | 172° |
| 2026-04-29 05:13 | 52.82745 | -1.33754 | 295 ft | 9 kts | 248° |
| 2026-04-29 05:13 | 52.82730 | -1.33848 | 297 ft | 8 kts | 255° |
| 2026-04-29 05:13 | 52.82703 | -1.33931 | 297 ft | 9 kts | 239° |
| 2026-04-29 05:14 | 52.82672 | -1.33991 | 296 ft | 6 kts | 181° |
| 2026-04-29 05:14 | 52.82664 | -1.33989 | 296 ft | 0 kts | 155° |
| 2026-04-29 05:14 | 52.82652 | -1.33966 | 295 ft | 4 kts | 99° |
| 2026-04-29 05:14 | 52.82655 | -1.33955 | 295 ft | 0 kts | 41° |